createdAt,value
2023-05-13T00:00:17.887Z,72.86
2023-05-13T00:00:38.931Z,72.87
2023-05-13T00:01:00.007Z,72.84
2023-05-13T00:01:21.035Z,72.73
2023-05-13T00:01:42.104Z,72.67
2023-05-13T00:02:03.169Z,72.71
2023-05-13T00:02:24.282Z,72.75
2023-05-13T00:02:45.649Z,72.79
2023-05-13T00:03:06.977Z,72.72
2023-05-13T00:03:28.198Z,72.71
2023-05-13T00:03:49.378Z,72.74
2023-05-13T00:04:10.480Z,72.72
2023-05-13T00:04:31.532Z,72.75
2023-05-13T00:04:52.609Z,72.76
2023-05-13T00:05:13.669Z,72.80
2023-05-13T00:05:34.736Z,72.76
2023-05-13T00:05:55.821Z,72.71
2023-05-13T00:06:16.974Z,72.65
2023-05-13T00:06:38.253Z,72.71
2023-05-13T00:06:59.431Z,72.79
2023-05-13T00:07:20.510Z,72.81
2023-05-13T00:07:41.668Z,72.88
2023-05-13T00:08:03.003Z,72.93
2023-05-13T00:08:24.262Z,73.01
2023-05-13T00:08:45.313Z,73.01
2023-05-13T00:09:06.368Z,73.01
2023-05-13T00:09:27.430Z,73.00
2023-05-13T00:09:48.512Z,73.03
2023-05-13T00:10:09.594Z,73.02
2023-05-13T00:10:30.612Z,72.99
2023-05-13T00:10:51.680Z,72.91
2023-05-13T00:11:12.749Z,72.90
2023-05-13T00:11:33.797Z,72.87
2023-05-13T00:11:54.849Z,72.76
2023-05-13T00:12:15.940Z,72.74
2023-05-13T00:12:36.991Z,72.78
2023-05-13T00:12:58.054Z,72.68
2023-05-13T00:13:19.351Z,72.63
2023-05-13T00:13:40.437Z,72.62
2023-05-13T00:14:01.505Z,72.65
2023-05-13T00:14:22.579Z,72.62
2023-05-13T00:14:43.635Z,72.62
2023-05-13T00:15:04.679Z,72.64
2023-05-13T00:15:25.797Z,72.72
2023-05-13T00:15:46.813Z,72.68
2023-05-13T00:16:07.945Z,72.75
2023-05-13T00:16:29.025Z,72.81
2023-05-13T00:16:50.097Z,72.85
2023-05-13T00:17:11.163Z,72.88
2023-05-13T00:17:32.248Z,72.90
2023-05-13T00:17:53.335Z,72.82
2023-05-13T00:18:14.366Z,72.82
2023-05-13T00:18:35.470Z,72.80
2023-05-13T00:18:56.818Z,72.78
2023-05-13T00:19:17.844Z,72.79
2023-05-13T00:19:38.895Z,72.77
2023-05-13T00:19:59.967Z,72.74
2023-05-13T00:20:21.331Z,72.74
2023-05-13T00:20:42.575Z,72.74
2023-05-13T00:21:03.605Z,72.72
2023-05-13T00:21:24.666Z,72.65
2023-05-13T00:21:45.738Z,72.69
2023-05-13T00:22:06.805Z,72.73
2023-05-13T00:22:27.857Z,72.75
2023-05-13T00:22:48.911Z,72.79
2023-05-13T00:23:10.038Z,72.84
2023-05-13T00:23:31.060Z,72.85
2023-05-13T00:23:52.153Z,72.86
2023-05-13T00:24:13.250Z,72.82
2023-05-13T00:24:34.300Z,72.81
2023-05-13T00:24:55.354Z,72.77
2023-05-13T00:25:16.418Z,72.77
2023-05-13T00:25:37.475Z,72.79
2023-05-13T00:25:58.536Z,72.84
2023-05-13T00:26:19.590Z,72.83
2023-05-13T00:26:40.654Z,72.82
2023-05-13T00:27:01.713Z,72.81
2023-05-13T00:27:22.800Z,72.69
2023-05-13T00:27:43.856Z,72.63
2023-05-13T00:28:04.917Z,72.68
2023-05-13T00:28:25.963Z,72.58
2023-05-13T00:28:47.034Z,72.60
2023-05-13T00:29:08.131Z,72.58
2023-05-13T00:29:29.395Z,72.61
2023-05-13T00:29:50.463Z,72.64
2023-05-13T00:30:11.509Z,72.68
2023-05-13T00:30:32.572Z,72.64
2023-05-13T00:30:53.631Z,72.67
2023-05-13T00:31:14.714Z,72.63
2023-05-13T00:31:35.803Z,72.59
2023-05-13T00:31:57.039Z,72.54
2023-05-13T00:32:18.164Z,72.49
2023-05-13T00:32:39.221Z,72.43
2023-05-13T00:33:00.346Z,72.34
2023-05-13T00:33:21.461Z,72.29
2023-05-13T00:33:42.526Z,72.30
2023-05-13T00:34:03.587Z,72.30
2023-05-13T00:34:24.860Z,72.36
2023-05-13T00:34:46.128Z,72.36
2023-05-13T00:35:07.205Z,72.30
2023-05-13T00:35:28.251Z,72.25
2023-05-13T00:35:49.322Z,72.17
2023-05-13T00:36:10.375Z,72.13
2023-05-13T00:36:31.433Z,72.10
2023-05-13T00:36:52.505Z,72.06
2023-05-13T00:37:13.556Z,72.01
2023-05-13T00:37:34.622Z,71.97
2023-05-13T00:37:55.689Z,71.93
2023-05-13T00:38:16.765Z,71.89
2023-05-13T00:38:37.815Z,71.91
2023-05-13T00:38:58.871Z,72.05
2023-05-13T00:39:19.927Z,72.11
2023-05-13T00:39:41.187Z,72.14
2023-05-13T00:40:02.335Z,72.20
2023-05-13T00:40:24.359Z,72.11
2023-05-13T00:40:45.539Z,72.11
2023-05-13T00:41:06.611Z,72.16
2023-05-13T00:41:27.638Z,72.15
2023-05-13T00:41:48.697Z,72.16
2023-05-13T00:42:09.755Z,72.18
2023-05-13T00:42:30.814Z,72.18
2023-05-13T00:42:51.869Z,72.19
2023-05-13T00:43:12.920Z,72.21
2023-05-13T00:43:34.001Z,72.10
2023-05-13T00:43:55.049Z,72.01
2023-05-13T00:44:16.103Z,72.06
2023-05-13T00:44:37.158Z,72.07
2023-05-13T00:44:58.441Z,72.11
2023-05-13T00:45:19.712Z,72.18
2023-05-13T00:45:40.808Z,72.22
2023-05-13T00:46:01.963Z,72.27
2023-05-13T00:46:23.142Z,72.27
2023-05-13T00:46:44.206Z,72.21
2023-05-13T00:47:05.263Z,72.17
2023-05-13T00:47:26.346Z,72.17
2023-05-13T00:47:47.412Z,72.14
2023-05-13T00:48:08.451Z,72.18
2023-05-13T00:48:29.559Z,72.12
2023-05-13T00:48:50.590Z,72.16
2023-05-13T00:49:11.647Z,72.23
2023-05-13T00:49:32.699Z,72.20
2023-05-13T00:49:53.758Z,72.20
2023-05-13T00:50:14.871Z,72.19
2023-05-13T00:50:35.959Z,72.18
2023-05-13T00:50:57.047Z,72.19
2023-05-13T00:51:18.078Z,72.18
2023-05-13T00:51:39.168Z,72.17
2023-05-13T00:52:00.200Z,72.10
2023-05-13T00:52:21.268Z,72.18
2023-05-13T00:52:42.372Z,72.22
2023-05-13T00:53:03.408Z,72.29
2023-05-13T00:53:24.472Z,72.34
2023-05-13T00:53:45.547Z,72.32
2023-05-13T00:54:06.593Z,72.35
2023-05-13T00:54:27.658Z,72.35
2023-05-13T00:54:48.724Z,72.34
2023-05-13T00:55:09.774Z,72.35
2023-05-13T00:55:31.054Z,72.35
2023-05-13T00:55:52.305Z,72.36
2023-05-13T00:56:13.369Z,72.42
2023-05-13T00:56:34.422Z,72.42
2023-05-13T00:56:55.478Z,72.39
2023-05-13T00:57:16.550Z,72.31
2023-05-13T00:57:37.620Z,72.22
2023-05-13T00:57:58.662Z,72.18
2023-05-13T00:58:19.720Z,72.14
2023-05-13T00:58:40.782Z,72.04
2023-05-13T00:59:01.841Z,72.02
2023-05-13T00:59:22.902Z,71.98
2023-05-13T00:59:43.968Z,71.98
2023-05-13T01:00:05.048Z,71.87
2023-05-13T01:00:26.079Z,71.94
2023-05-13T01:00:47.411Z,72.00
2023-05-13T01:01:08.550Z,72.06
2023-05-13T01:01:29.690Z,72.16
2023-05-13T01:01:50.762Z,72.21
2023-05-13T01:02:11.902Z,72.27
2023-05-13T01:02:33.041Z,72.18
2023-05-13T01:02:54.149Z,72.18
2023-05-13T01:03:15.331Z,72.23
2023-05-13T01:03:36.579Z,72.26
2023-05-13T01:03:57.615Z,72.25
2023-05-13T01:04:18.677Z,72.16
2023-05-13T01:04:39.749Z,72.14
2023-05-13T01:05:00.819Z,72.16
2023-05-13T01:05:21.879Z,72.24
2023-05-13T01:05:42.936Z,72.36
2023-05-13T01:06:04.041Z,72.43
2023-05-13T01:06:25.131Z,72.38
2023-05-13T01:06:46.191Z,72.34
2023-05-13T01:07:07.245Z,72.30
2023-05-13T01:07:28.299Z,72.31
2023-05-13T01:07:49.372Z,72.40
2023-05-13T01:08:10.436Z,72.46
2023-05-13T01:08:31.488Z,72.38
2023-05-13T01:08:52.554Z,72.32
2023-05-13T01:09:13.618Z,72.28
2023-05-13T01:09:34.683Z,72.19
2023-05-13T01:09:55.723Z,72.07
2023-05-13T01:10:16.785Z,71.92
2023-05-13T01:10:37.836Z,71.85
2023-05-13T01:10:58.892Z,71.79
2023-05-13T01:11:19.979Z,71.81
2023-05-13T01:11:41.083Z,71.80
2023-05-13T01:12:02.140Z,71.79
2023-05-13T01:12:23.215Z,71.80
2023-05-13T01:12:44.270Z,71.81
2023-05-13T01:13:05.345Z,71.90
2023-05-13T01:13:26.384Z,72.01
2023-05-13T01:13:47.447Z,72.10
2023-05-13T01:14:08.500Z,72.02
2023-05-13T01:14:29.572Z,71.89
2023-05-13T01:14:50.622Z,71.79
2023-05-13T01:15:11.683Z,71.78
2023-05-13T01:15:32.750Z,71.81
2023-05-13T01:15:53.813Z,71.83
2023-05-13T01:16:14.873Z,71.87
2023-05-13T01:16:36.051Z,71.84
2023-05-13T01:16:57.328Z,71.79
2023-05-13T01:17:18.394Z,71.80
2023-05-13T01:17:39.483Z,71.80
2023-05-13T01:18:00.524Z,71.90
2023-05-13T01:18:21.719Z,72.02
2023-05-13T01:18:42.840Z,72.04
2023-05-13T01:19:03.876Z,72.00
2023-05-13T01:19:25.012Z,72.05
2023-05-13T01:19:46.065Z,72.12
2023-05-13T01:20:07.130Z,72.32
2023-05-13T01:20:28.180Z,72.34
2023-05-13T01:20:49.234Z,72.28
2023-05-13T01:21:10.299Z,72.21
2023-05-13T01:21:31.361Z,72.11
2023-05-13T01:21:52.458Z,72.02
2023-05-13T01:22:13.543Z,71.86
2023-05-13T01:22:34.605Z,71.80
2023-05-13T01:22:55.665Z,71.79
2023-05-13T01:23:16.736Z,71.87
2023-05-13T01:23:37.783Z,71.94
2023-05-13T01:23:58.886Z,71.96
2023-05-13T01:24:19.986Z,72.00
2023-05-13T01:24:41.104Z,72.07
2023-05-13T01:25:02.177Z,72.12
2023-05-13T01:25:23.225Z,72.22
2023-05-13T01:25:44.273Z,72.32
2023-05-13T01:26:05.350Z,72.43
2023-05-13T01:26:26.413Z,72.37
2023-05-13T01:26:47.478Z,72.34
2023-05-13T01:27:08.747Z,72.35
2023-05-13T01:27:29.849Z,72.32
2023-05-13T01:27:50.888Z,72.33
2023-05-13T01:28:11.966Z,72.37
2023-05-13T01:28:33.038Z,72.35
2023-05-13T01:28:54.102Z,72.30
2023-05-13T01:29:15.149Z,72.31
2023-05-13T01:29:36.219Z,72.32
2023-05-13T01:29:57.274Z,72.29
2023-05-13T01:30:18.351Z,72.33
2023-05-13T01:30:39.402Z,72.32
2023-05-13T01:31:00.474Z,72.46
2023-05-13T01:31:21.563Z,72.51
2023-05-13T01:31:42.738Z,72.35
2023-05-13T01:32:03.798Z,72.32
2023-05-13T01:32:25.121Z,72.37
2023-05-13T01:32:46.282Z,72.39
2023-05-13T01:33:07.390Z,72.54
2023-05-13T01:33:28.426Z,72.53
2023-05-13T01:33:49.482Z,72.50
2023-05-13T01:34:10.548Z,72.39
2023-05-13T01:34:31.610Z,72.32
2023-05-13T01:34:52.660Z,72.27
2023-05-13T01:35:13.736Z,72.20
2023-05-13T01:35:34.802Z,72.13
2023-05-13T01:35:55.849Z,72.15
2023-05-13T01:36:16.907Z,72.18
2023-05-13T01:36:37.979Z,72.23
2023-05-13T01:36:59.026Z,72.27
2023-05-13T01:37:20.100Z,72.27
2023-05-13T01:37:41.182Z,72.26
2023-05-13T01:38:02.309Z,72.28
2023-05-13T01:38:23.372Z,72.25
2023-05-13T01:38:44.430Z,72.16
2023-05-13T01:39:05.489Z,72.07
2023-05-13T01:39:26.540Z,72.06
2023-05-13T01:39:47.608Z,72.10
2023-05-13T01:40:20.421Z,72.15
2023-05-13T01:40:35.966Z,72.18
2023-05-13T01:40:57.085Z,72.14
2023-05-13T01:41:18.131Z,72.19
2023-05-13T01:41:39.189Z,72.24
2023-05-13T01:42:00.290Z,72.21
2023-05-13T01:42:21.309Z,72.24
2023-05-13T01:42:42.423Z,72.19
2023-05-13T01:43:03.664Z,72.22
2023-05-13T01:43:24.726Z,72.29
2023-05-13T01:43:45.785Z,72.43
2023-05-13T01:44:06.848Z,72.49
2023-05-13T01:44:27.934Z,72.48
2023-05-13T01:44:48.997Z,72.40
2023-05-13T01:45:10.021Z,72.24
2023-05-13T01:45:31.080Z,72.17
2023-05-13T01:45:52.186Z,72.23
2023-05-13T01:46:13.311Z,72.25
2023-05-13T01:46:34.458Z,72.29
2023-05-13T01:46:55.582Z,72.32
2023-05-13T01:47:16.644Z,72.32
2023-05-13T01:47:37.719Z,72.31
2023-05-13T01:47:59.028Z,72.35
2023-05-13T01:48:20.276Z,72.36
2023-05-13T01:48:41.391Z,72.32
2023-05-13T01:49:02.439Z,72.26
2023-05-13T01:49:23.497Z,72.20
2023-05-13T01:49:44.555Z,72.17
2023-05-13T01:50:05.618Z,72.28
2023-05-13T01:50:26.662Z,72.39
2023-05-13T01:50:47.728Z,72.42
2023-05-13T01:51:08.776Z,72.53
2023-05-13T01:51:29.838Z,72.56
2023-05-13T01:51:50.891Z,72.64
2023-05-13T01:52:11.973Z,72.71
2023-05-13T01:52:33.015Z,72.71
2023-05-13T01:52:54.078Z,72.76
2023-05-13T01:53:15.189Z,72.72
2023-05-13T01:53:36.453Z,72.69
2023-05-13T01:53:57.528Z,72.61
2023-05-13T01:54:18.575Z,72.57
2023-05-13T01:54:39.639Z,72.55
2023-05-13T01:55:00.712Z,72.48
2023-05-13T01:55:21.797Z,72.39
2023-05-13T01:55:42.845Z,72.31
2023-05-13T01:56:03.899Z,72.29
2023-05-13T01:56:24.963Z,72.34
2023-05-13T01:56:46.020Z,72.35
2023-05-13T01:57:07.095Z,72.43
2023-05-13T01:57:28.135Z,72.49
2023-05-13T01:57:49.206Z,72.56
2023-05-13T01:58:10.248Z,72.64
2023-05-13T01:58:31.507Z,72.65
2023-05-13T01:58:52.592Z,72.71
2023-05-13T01:59:13.654Z,72.71
2023-05-13T01:59:34.711Z,72.78
2023-05-13T01:59:55.761Z,72.71
2023-05-13T02:00:16.831Z,72.72
2023-05-13T02:00:37.900Z,72.78
2023-05-13T02:00:58.949Z,72.82
2023-05-13T02:01:22.441Z,72.83
2023-05-13T02:01:43.845Z,72.82
2023-05-13T02:02:04.953Z,72.81
2023-05-13T02:02:26.023Z,72.78
2023-05-13T02:02:47.266Z,72.77
2023-05-13T02:03:08.448Z,72.81
2023-05-13T02:03:29.567Z,72.82
2023-05-13T02:03:50.797Z,72.82
2023-05-13T02:04:11.897Z,72.87
2023-05-13T02:04:32.963Z,72.89
2023-05-13T02:04:54.030Z,72.94
2023-05-13T02:05:15.096Z,72.96
2023-05-13T02:05:36.152Z,72.96
2023-05-13T02:05:57.199Z,72.96
2023-05-13T02:06:18.264Z,72.98
2023-05-13T02:06:39.346Z,73.07
2023-05-13T02:07:00.410Z,73.05
2023-05-13T02:07:21.452Z,73.07
2023-05-13T02:07:42.519Z,73.03
2023-05-13T02:08:03.605Z,73.04
2023-05-13T02:08:24.653Z,73.04
2023-05-13T02:08:45.702Z,72.99
2023-05-13T02:09:06.990Z,73.04
2023-05-13T02:09:28.085Z,73.06
2023-05-13T02:09:49.144Z,73.07
2023-05-13T02:10:10.203Z,73.07
2023-05-13T02:10:31.261Z,73.02
2023-05-13T02:10:52.315Z,72.97
2023-05-13T02:11:13.368Z,72.96
2023-05-13T02:11:34.438Z,72.97
2023-05-13T02:11:55.542Z,72.92
2023-05-13T02:12:16.594Z,72.90
2023-05-13T02:12:37.660Z,72.93
2023-05-13T02:12:58.731Z,72.95
2023-05-13T02:13:19.773Z,72.98
2023-05-13T02:13:40.842Z,73.00
2023-05-13T02:14:01.912Z,72.87
2023-05-13T02:14:23.181Z,72.93
2023-05-13T02:14:44.292Z,72.93
2023-05-13T02:15:05.369Z,72.97
2023-05-13T02:15:26.404Z,73.00
2023-05-13T02:15:47.466Z,73.03
2023-05-13T02:16:08.561Z,73.03
2023-05-13T02:16:29.630Z,73.02
2023-05-13T02:16:50.865Z,73.03
2023-05-13T02:17:12.028Z,73.02
2023-05-13T02:17:33.098Z,73.03
2023-05-13T02:17:54.195Z,73.03
2023-05-13T02:18:15.247Z,72.97
2023-05-13T02:18:36.350Z,72.94
2023-05-13T02:18:57.414Z,72.99
2023-05-13T02:19:18.475Z,72.98
2023-05-13T02:19:39.573Z,72.92
2023-05-13T02:20:00.708Z,72.93
2023-05-13T02:20:21.981Z,72.83
2023-05-13T02:20:43.217Z,72.85
2023-05-13T02:21:04.264Z,72.82
2023-05-13T02:21:25.329Z,72.89
2023-05-13T02:21:46.390Z,72.88
2023-05-13T02:22:07.449Z,72.92
2023-05-13T02:22:28.509Z,72.94
2023-05-13T02:22:49.576Z,72.95
2023-05-13T02:23:10.628Z,72.95
2023-05-13T02:23:31.686Z,73.01
2023-05-13T02:23:52.758Z,73.02
2023-05-13T02:24:13.797Z,72.98
2023-05-13T02:24:34.870Z,72.92
2023-05-13T02:24:56.134Z,72.88
2023-05-13T02:25:17.404Z,72.90
2023-05-13T02:25:38.466Z,72.90
2023-05-13T02:25:59.524Z,72.86
2023-05-13T02:26:20.600Z,72.91
2023-05-13T02:26:41.642Z,72.96
2023-05-13T02:27:02.702Z,72.96
2023-05-13T02:27:23.773Z,72.98
2023-05-13T02:27:44.821Z,72.96
2023-05-13T02:28:05.897Z,72.89
2023-05-13T02:28:26.936Z,72.81
2023-05-13T02:28:48.019Z,72.74
2023-05-13T02:29:09.071Z,72.77
2023-05-13T02:29:30.124Z,72.62
2023-05-13T02:29:51.185Z,72.55
2023-05-13T02:30:12.300Z,72.52
2023-05-13T02:30:33.406Z,72.47
2023-05-13T02:30:54.447Z,72.49
2023-05-13T02:31:15.529Z,72.58
2023-05-13T02:31:36.612Z,72.63
2023-05-13T02:31:57.688Z,72.75
2023-05-13T02:32:18.763Z,72.84
2023-05-13T02:32:39.956Z,72.82
2023-05-13T02:33:01.028Z,72.80
2023-05-13T02:33:22.053Z,72.74
2023-05-13T02:33:43.115Z,72.71
2023-05-13T02:34:04.169Z,72.73
2023-05-13T02:34:25.234Z,72.86
2023-05-13T02:34:46.304Z,72.93
2023-05-13T02:35:07.364Z,72.93
2023-05-13T02:35:28.464Z,72.96
2023-05-13T02:35:49.747Z,73.02
2023-05-13T02:36:10.788Z,73.05
2023-05-13T02:36:31.873Z,73.09
2023-05-13T02:36:52.901Z,73.17
2023-05-13T02:37:13.968Z,73.14
2023-05-13T02:37:35.022Z,73.20
2023-05-13T02:37:56.079Z,73.23
2023-05-13T02:38:17.155Z,73.16
2023-05-13T02:38:38.210Z,73.18
2023-05-13T02:38:59.271Z,73.19
2023-05-13T02:39:20.329Z,73.21
2023-05-13T02:39:41.393Z,73.12
2023-05-13T02:40:02.466Z,73.08
2023-05-13T02:40:23.636Z,73.09
2023-05-13T02:40:45.007Z,73.19
2023-05-13T02:41:06.098Z,73.21
2023-05-13T02:41:27.164Z,73.18
2023-05-13T02:41:48.208Z,73.23
2023-05-13T02:42:09.259Z,73.26
2023-05-13T02:42:30.309Z,73.32
2023-05-13T02:42:51.403Z,73.34
2023-05-13T02:43:12.441Z,73.36
2023-05-13T02:43:33.501Z,73.34
2023-05-13T02:43:54.560Z,73.39
2023-05-13T02:44:15.611Z,73.41
2023-05-13T02:44:36.672Z,73.41
2023-05-13T02:44:57.748Z,73.38
2023-05-13T02:45:18.820Z,73.41
2023-05-13T02:45:39.909Z,73.41
2023-05-13T02:46:01.214Z,73.45
2023-05-13T02:46:22.325Z,73.46
2023-05-13T02:46:43.418Z,73.37
2023-05-13T02:47:04.489Z,73.28
2023-05-13T02:47:25.598Z,73.21
2023-05-13T02:47:46.731Z,73.28
2023-05-13T02:48:07.852Z,73.23
2023-05-13T02:48:28.931Z,73.24
2023-05-13T02:48:49.977Z,73.19
2023-05-13T02:49:11.041Z,73.24
2023-05-13T02:49:32.087Z,73.27
2023-05-13T02:49:53.149Z,73.30
2023-05-13T02:50:14.238Z,73.28
2023-05-13T02:50:35.277Z,73.34
2023-05-13T02:50:56.333Z,73.37
2023-05-13T02:51:17.449Z,73.36
2023-05-13T02:51:38.696Z,73.36
2023-05-13T02:51:59.762Z,73.35
2023-05-13T02:52:20.814Z,73.34
2023-05-13T02:52:41.872Z,73.37
2023-05-13T02:53:02.952Z,73.47
2023-05-13T02:53:24.004Z,73.40
2023-05-13T02:53:45.059Z,73.42
2023-05-13T02:54:06.127Z,73.52
2023-05-13T02:54:27.185Z,73.51
2023-05-13T02:54:48.262Z,73.54
2023-05-13T02:55:09.342Z,73.60
2023-05-13T02:55:30.435Z,73.60
2023-05-13T02:55:51.480Z,73.62
2023-05-13T02:56:12.561Z,73.64
2023-05-13T02:56:33.649Z,73.63
2023-05-13T02:56:54.941Z,73.67
2023-05-13T02:57:15.982Z,73.69
2023-05-13T02:57:37.038Z,73.67
2023-05-13T02:57:58.163Z,73.71
2023-05-13T02:58:19.226Z,73.66
2023-05-13T02:58:40.291Z,73.69
2023-05-13T02:59:01.367Z,73.70
2023-05-13T02:59:22.422Z,73.73
2023-05-13T02:59:43.476Z,73.72
2023-05-13T03:00:04.550Z,73.72
2023-05-13T03:00:25.593Z,73.64
2023-05-13T03:00:46.641Z,73.52
2023-05-13T03:01:07.722Z,73.45
2023-05-13T03:01:28.847Z,73.50
2023-05-13T03:01:50.072Z,73.51
2023-05-13T03:02:11.187Z,73.45
2023-05-13T03:02:32.338Z,73.43
2023-05-13T03:02:53.466Z,73.38
2023-05-13T03:03:14.611Z,73.43
2023-05-13T03:03:35.853Z,73.43
2023-05-13T03:03:56.966Z,73.44
2023-05-13T03:04:18.024Z,73.49
2023-05-13T03:04:39.080Z,73.50
2023-05-13T03:05:00.179Z,73.50
2023-05-13T03:05:21.215Z,73.53
2023-05-13T03:05:42.266Z,73.63
2023-05-13T03:06:03.314Z,73.71
2023-05-13T03:06:24.436Z,73.65
2023-05-13T03:06:45.475Z,73.67
2023-05-13T03:07:06.781Z,73.68
2023-05-13T03:07:27.863Z,73.67
2023-05-13T03:07:48.925Z,73.73
2023-05-13T03:08:09.986Z,73.78
2023-05-13T03:08:31.049Z,73.76
2023-05-13T03:08:52.098Z,73.81
2023-05-13T03:09:13.161Z,73.84
2023-05-13T03:09:34.231Z,73.88
2023-05-13T03:09:55.287Z,73.87
2023-05-13T03:10:16.348Z,73.85
2023-05-13T03:10:37.407Z,73.85
2023-05-13T03:10:58.477Z,73.86
2023-05-13T03:11:19.532Z,73.83
2023-05-13T03:11:40.580Z,73.84
2023-05-13T03:12:01.653Z,73.87
2023-05-13T03:12:22.743Z,73.88
2023-05-13T03:12:43.832Z,73.84
2023-05-13T03:13:04.945Z,73.78
2023-05-13T03:13:25.979Z,73.73
2023-05-13T03:13:47.028Z,73.72
2023-05-13T03:14:08.085Z,73.71
2023-05-13T03:14:29.171Z,73.75
2023-05-13T03:14:50.211Z,73.81
2023-05-13T03:15:11.290Z,73.88
2023-05-13T03:15:32.329Z,73.90
2023-05-13T03:15:53.410Z,73.80
2023-05-13T03:16:14.490Z,73.82
2023-05-13T03:16:35.650Z,73.78
2023-05-13T03:16:56.717Z,73.76
2023-05-13T03:17:17.775Z,73.78
2023-05-13T03:17:39.097Z,73.80
2023-05-13T03:18:00.190Z,73.84
2023-05-13T03:18:21.298Z,73.83
2023-05-13T03:18:42.452Z,73.77
2023-05-13T03:19:03.583Z,73.73
2023-05-13T03:19:24.685Z,73.75
2023-05-13T03:19:45.728Z,73.74
2023-05-13T03:20:06.779Z,73.77
2023-05-13T03:20:27.845Z,73.74
2023-05-13T03:20:48.910Z,73.85
2023-05-13T03:21:09.959Z,73.87
2023-05-13T03:21:31.024Z,73.90
2023-05-13T03:21:52.091Z,73.94
2023-05-13T03:22:13.171Z,73.93
2023-05-13T03:22:34.232Z,73.87
2023-05-13T03:22:55.477Z,73.93
2023-05-13T03:23:37.746Z,73.95
2023-05-13T03:23:58.814Z,74.14
2023-05-13T03:24:19.873Z,74.04
2023-05-13T03:24:40.929Z,74.00
2023-05-13T03:25:01.987Z,74.00
2023-05-13T03:25:23.048Z,74.02
2023-05-13T03:25:44.110Z,74.01
2023-05-13T03:26:05.166Z,73.99
2023-05-13T03:26:26.219Z,74.03
2023-05-13T03:26:47.291Z,73.99
2023-05-13T03:27:08.338Z,73.97
2023-05-13T03:27:29.384Z,73.98
2023-05-13T03:27:50.480Z,73.98
2023-05-13T03:28:11.744Z,73.98
2023-05-13T03:28:32.831Z,74.02
2023-05-13T03:28:53.894Z,73.94
2023-05-13T03:29:14.975Z,73.93
2023-05-13T03:29:36.038Z,74.00
2023-05-13T03:29:57.089Z,74.01
2023-05-13T03:30:18.180Z,73.98
2023-05-13T03:30:39.238Z,73.96
2023-05-13T03:31:00.379Z,73.97
2023-05-13T03:31:21.473Z,74.02
2023-05-13T03:31:42.584Z,74.00
2023-05-13T03:32:03.672Z,74.01
2023-05-13T03:32:24.751Z,73.93
2023-05-13T03:32:45.816Z,73.88
2023-05-13T03:33:06.878Z,73.73
2023-05-13T03:33:28.998Z,73.74
2023-05-13T03:33:50.269Z,73.81
2023-05-13T03:34:11.322Z,73.84
2023-05-13T03:34:32.391Z,73.94
2023-05-13T03:34:53.455Z,74.02
2023-05-13T03:35:14.502Z,74.07
2023-05-13T03:35:35.564Z,74.11
2023-05-13T03:35:56.630Z,74.18
2023-05-13T03:36:17.687Z,74.21
2023-05-13T03:36:38.737Z,74.24
2023-05-13T03:36:59.843Z,74.22
2023-05-13T03:37:20.896Z,74.20
2023-05-13T03:37:41.958Z,74.16
2023-05-13T03:38:03.052Z,74.11
2023-05-13T03:38:24.090Z,74.08
2023-05-13T03:38:45.257Z,74.13
2023-05-13T03:39:06.486Z,74.20
2023-05-13T03:39:27.543Z,74.19
2023-05-13T03:39:48.633Z,74.20
2023-05-13T03:40:09.687Z,74.19
2023-05-13T03:40:30.723Z,74.21
2023-05-13T03:40:51.785Z,74.21
2023-05-13T03:41:12.878Z,74.18
2023-05-13T03:41:33.921Z,74.20
2023-05-13T03:41:54.994Z,74.20
2023-05-13T03:42:16.057Z,74.18
2023-05-13T03:42:37.103Z,74.17
2023-05-13T03:42:58.162Z,74.17
2023-05-13T03:43:19.226Z,74.14
2023-05-13T03:43:40.283Z,74.14
2023-05-13T03:44:01.594Z,74.14
2023-05-13T03:44:22.706Z,74.21
2023-05-13T03:44:43.750Z,74.24
2023-05-13T03:45:04.808Z,74.27
2023-05-13T03:45:25.861Z,74.24
2023-05-13T03:45:46.927Z,74.22
2023-05-13T03:46:07.985Z,74.20
2023-05-13T03:46:29.056Z,74.22
2023-05-13T03:46:50.117Z,74.24
2023-05-13T03:47:11.303Z,74.23
2023-05-13T03:47:32.352Z,74.21
2023-05-13T03:47:53.436Z,74.14
2023-05-13T03:48:14.461Z,74.11
2023-05-13T03:48:35.524Z,74.05
2023-05-13T03:48:56.598Z,74.01
2023-05-13T03:49:17.873Z,74.08
2023-05-13T03:49:39.148Z,74.09
2023-05-13T03:50:00.238Z,74.08
2023-05-13T03:50:21.432Z,74.14
2023-05-13T03:50:42.566Z,74.14
2023-05-13T03:51:03.617Z,74.21
2023-05-13T03:51:24.669Z,74.15
2023-05-13T03:51:45.734Z,74.12
2023-05-13T03:52:06.793Z,74.09
2023-05-13T03:52:27.875Z,74.01
2023-05-13T03:52:48.953Z,74.05
2023-05-13T03:53:10.001Z,74.03
2023-05-13T03:53:31.057Z,74.10
2023-05-13T03:53:52.125Z,74.04
2023-05-13T03:54:13.167Z,74.01
2023-05-13T03:54:34.263Z,74.04
2023-05-13T03:54:55.350Z,74.03
2023-05-13T03:55:16.414Z,74.10
2023-05-13T03:55:37.470Z,74.04
2023-05-13T03:55:58.533Z,73.96
2023-05-13T03:56:19.602Z,73.95
2023-05-13T03:56:40.663Z,73.98
2023-05-13T03:57:01.718Z,74.02
2023-05-13T03:57:22.777Z,73.98
2023-05-13T03:57:43.831Z,73.91
2023-05-13T03:58:04.889Z,73.90
2023-05-13T03:58:25.964Z,73.94
2023-05-13T03:58:47.020Z,73.92
2023-05-13T03:59:08.082Z,73.93
2023-05-13T03:59:29.143Z,74.01
2023-05-13T03:59:50.415Z,74.04
2023-05-13T04:00:11.526Z,73.98
2023-05-13T04:00:32.581Z,73.97
2023-05-13T04:00:53.643Z,73.99
2023-05-13T04:01:14.685Z,73.97
2023-05-13T04:01:35.754Z,73.97
2023-05-13T04:01:56.864Z,73.96
2023-05-13T04:02:17.940Z,74.00
2023-05-13T04:02:39.049Z,74.05
2023-05-13T04:03:00.164Z,73.99
2023-05-13T04:03:21.239Z,73.97
2023-05-13T04:03:42.297Z,73.95
2023-05-13T04:04:03.351Z,73.92
2023-05-13T04:04:24.469Z,73.87
2023-05-13T04:04:45.589Z,73.83
2023-05-13T04:05:06.772Z,73.80
2023-05-13T04:05:28.044Z,73.84
2023-05-13T04:05:49.123Z,73.81
2023-05-13T04:06:10.192Z,73.90
2023-05-13T04:06:31.215Z,73.90
2023-05-13T04:06:52.271Z,73.93
2023-05-13T04:07:13.332Z,73.91
2023-05-13T04:07:34.388Z,73.99
2023-05-13T04:07:55.448Z,74.03
2023-05-13T04:08:16.515Z,74.09
2023-05-13T04:08:37.580Z,74.09
2023-05-13T04:08:58.628Z,74.16
2023-05-13T04:09:19.682Z,74.13
2023-05-13T04:09:40.750Z,74.13
2023-05-13T04:10:01.802Z,74.14
2023-05-13T04:10:23.119Z,74.15
2023-05-13T04:10:44.286Z,74.11
2023-05-13T04:11:05.362Z,74.14
2023-05-13T04:11:26.426Z,74.15
2023-05-13T04:11:47.493Z,74.11
2023-05-13T04:12:08.539Z,74.08
2023-05-13T04:12:29.591Z,74.02
2023-05-13T04:12:50.658Z,73.95
2023-05-13T04:13:11.717Z,73.91
2023-05-13T04:13:32.787Z,73.87
2023-05-13T04:13:53.846Z,73.91
2023-05-13T04:14:14.901Z,73.89
2023-05-13T04:14:35.947Z,73.84
2023-05-13T04:14:57.009Z,73.88
2023-05-13T04:15:18.069Z,73.93
2023-05-13T04:15:39.171Z,73.97
2023-05-13T04:16:00.438Z,73.95
2023-05-13T04:16:21.534Z,73.93
2023-05-13T04:16:42.667Z,73.90
2023-05-13T04:17:03.760Z,73.87
2023-05-13T04:17:24.833Z,73.85
2023-05-13T04:17:45.917Z,73.88
2023-05-13T04:18:07.023Z,73.84
2023-05-13T04:18:28.112Z,73.91
2023-05-13T04:18:49.148Z,73.88
2023-05-13T04:19:10.265Z,73.92
2023-05-13T04:19:31.340Z,73.97
2023-05-13T04:19:52.382Z,74.00
2023-05-13T04:20:13.442Z,74.03
2023-05-13T04:20:34.498Z,74.03
2023-05-13T04:20:55.614Z,74.08
2023-05-13T04:21:16.741Z,74.11
2023-05-13T04:21:37.782Z,74.08
2023-05-13T04:21:58.834Z,74.04
2023-05-13T04:22:19.897Z,73.96
2023-05-13T04:22:40.964Z,73.95
2023-05-13T04:23:02.020Z,73.99
2023-05-13T04:23:23.080Z,74.02
2023-05-13T04:23:44.145Z,74.00
2023-05-13T04:24:05.191Z,74.05
2023-05-13T04:24:26.241Z,74.03
2023-05-13T04:24:47.293Z,74.08
2023-05-13T04:25:08.356Z,74.11
2023-05-13T04:25:29.482Z,74.13
2023-05-13T04:25:50.540Z,74.09
2023-05-13T04:26:11.616Z,74.09
2023-05-13T04:26:32.707Z,74.09
2023-05-13T04:26:53.764Z,74.12
2023-05-13T04:27:14.824Z,74.12
2023-05-13T04:27:35.886Z,74.03
2023-05-13T04:27:56.951Z,73.97
2023-05-13T04:28:18.000Z,73.96
2023-05-13T04:28:39.055Z,74.00
2023-05-13T04:29:00.231Z,74.02
2023-05-13T04:29:21.309Z,74.02
2023-05-13T04:29:42.375Z,73.99
2023-05-13T04:30:03.440Z,74.02
2023-05-13T04:30:24.492Z,74.07
2023-05-13T04:30:45.570Z,74.02
2023-05-13T04:31:06.623Z,74.04
2023-05-13T04:31:27.760Z,74.08
2023-05-13T04:31:48.962Z,74.05
2023-05-13T04:32:10.158Z,74.08